KCNB

Details ICAO KCNB
Name MYERS FIELD
Region United States
Timezone America/Chicago (UTC-6.0)
Plans Departing 0
Arriving 1
Stats Elevation 1,193 ft / 364 m (AMSL)
Location 44.729487° -96.266002°
Runways 1
Magnetic Variation 2.636° E
Sunrise 2017-12-17 13:58:26 UTC / 2017-12-17 07:58:26 Local
Sunset 2017-12-17 22:46:55 UTC / 2017-12-17 16:46:55 Local
Advertisement - Login to hide

Runways

ID Width Length Bearing (true) Bearing (mag) Surface Threshold Offset Overrun Length
12 75 ft / 23 m 4,643 ft / 1,415 m 121.37° 118.73° Asphalt 0 ft / 0 m 0 ft / 0 m
30 75 ft / 23 m 4,643 ft / 1,415 m 301.39° 298.75° Asphalt 250 ft / 76 m 0 ft / 0 m

Map

Weather


0- 5 10 15 20 25 30 35+ Temperature / ° C

Clouds and Precipitation
Forecast for 2017-12-18 06:00 UTC. Updated 14 minutes ago

Ground ~20,000 ft ~40,000 ft Winds

METAR

KCNB 180135Z AUTO 15004KT 10SM SCT080 BKN110 00/M02 A2993 RMK AO2 T00001018

TAF

Not found

Frequencies

Recorded 118.57 MHz AWOS 3
Approach 128.50 MHz MINNEAPOLIS CNTR
Unicom 122.90 MHz CTAF
Warning: Do not use this data for real-world aviation or navigation. No guarantee of current accuracy is given.